Time;durP1;ratioP1;P1;durP2;ratioP2;P2;SDS_P1;SDS_P2;PMS_P1;PMS_P2;Temp;Humidity;BMP_temperature;BMP_pressure;BME280_temperature;BME280_humidity;BME280_pressure;Samples;Min_cycle;Max_cycle;Signal;HPM_P1;HPM_P2
2022/07/01 00:00:16;;;;;;;1.30;1.20;;;14.10;99.90;;;;;;5099319;28;20969;-83
2022/07/01 00:02:44;;;;;;;1.10;1.10;;;13.90;99.90;;;;;;5098780;28;20427;-82
2022/07/01 00:05:11;;;;;;;1.20;1.10;;;13.80;99.90;;;;;;5093481;28;20463;-83
2022/07/01 00:07:38;;;;;;;1.73;1.10;;;13.70;99.90;;;;;;5093949;28;20443;-83
2022/07/01 00:10:06;;;;;;;1.50;1.40;;;13.70;99.90;;;;;;5093667;28;20443;-83
2022/07/01 00:12:32;;;;;;;3.97;1.73;;;13.70;99.90;;;;;;5092654;28;20454;-82
2022/07/01 00:14:59;;;;;;;1.93;1.20;;;13.60;99.90;;;;;;5090485;28;20463;-83
2022/07/01 00:17:26;;;;;;;1.40;1.30;;;13.70;99.90;;;;;;5090925;28;20802;-82
2022/07/01 00:19:54;;;;;;;4.20;1.30;;;13.70;99.90;;;;;;5092468;28;20483;-81
2022/07/01 00:22:21;;;;;;;1.73;1.63;;;13.70;99.90;;;;;;5116271;28;20453;-81
2022/07/01 00:24:48;;;;;;;1.70;1.60;;;13.60;99.90;;;;;;5118641;28;20458;-82
2022/07/01 00:27:15;;;;;;;3.53;1.17;;;13.60;99.90;;;;;;5099203;28;20462;-82
2022/07/01 00:29:42;;;;;;;2.00;1.57;;;13.60;99.90;;;;;;5099207;28;20451;-82
2022/07/01 00:32:09;;;;;;;1.50;1.40;;;13.60;99.90;;;;;;5099189;28;20435;-81
2022/07/01 00:34:35;;;;;;;1.20;1.20;;;13.50;99.90;;;;;;5099189;28;20494;-81
2022/07/01 00:37:04;;;;;;;1.27;1.17;;;13.60;99.90;;;;;;5116799;28;20457;-81
2022/07/01 00:39:33;;;;;;;1.50;1.40;;;13.50;99.90;;;;;;5114503;28;20480;-82
2022/07/01 00:42:01;;;;;;;0.83;0.83;;;13.50;99.90;;;;;;5118920;28;20438;-81
2022/07/01 00:44:28;;;;;;;2.50;1.43;;;13.50;99.90;;;;;;5104540;28;20454;-81
2022/07/01 00:46:55;;;;;;;1.27;1.07;;;13.60;99.90;;;;;;5098827;28;20458;-82
2022/07/01 00:49:22;;;;;;;2.67;1.33;;;13.60;99.90;;;;;;5111844;28;20525;-82
2022/07/01 00:51:49;;;;;;;1.47;1.07;;;13.60;99.90;;;;;;5117051;28;20461;-83
2022/07/01 00:54:17;;;;;;;2.20;1.40;;;13.60;99.90;;;;;;5102686;28;20470;-83
2022/07/01 00:56:43;;;;;;;1.40;1.30;;;13.60;99.90;;;;;;5084246;28;20458;-82
2022/07/01 00:59:10;;;;;;;1.40;1.40;;;13.60;99.90;;;;;;5093433;28;20482;-83
2022/07/01 01:01:37;;;;;;;1.77;1.03;;;13.60;99.90;;;;;;5101248;28;20462;-83
2022/07/01 01:04:04;;;;;;;1.40;1.30;;;13.60;99.90;;;;;;5088629;28;20467;-83
2022/07/01 01:06:31;;;;;;;1.07;0.93;;;13.60;99.90;;;;;;5097303;28;20446;-83
2022/07/01 01:08:58;;;;;;;1.00;1.00;;;13.60;99.90;;;;;;5093760;28;20471;-82
2022/07/01 01:11:26;;;;;;;1.13;1.03;;;13.60;99.90;;;;;;5097506;28;20453;-82
2022/07/01 01:13:53;;;;;;;1.03;1.03;;;13.70;99.90;;;;;;5096123;28;20477;-83
2022/07/01 01:16:21;;;;;;;1.80;1.37;;;13.70;99.90;;;;;;5090540;28;20442;-83
2022/07/01 01:18:48;;;;;;;1.87;1.47;;;13.80;99.90;;;;;;5100487;28;20489;-83
2022/07/01 01:21:17;;;;;;;1.17;1.17;;;13.80;99.90;;;;;;5100432;28;20521;-82
2022/07/01 01:23:43;;;;;;;0.87;0.80;;;13.90;99.90;;;;;;5100236;28;21065;-83
2022/07/01 01:26:18;;;;;;;0.97;0.97;;;13.90;99.90;;;;;;5100013;28;20790;-83
2022/07/01 01:28:44;;;;;;;1.53;0.90;;;13.90;99.90;;;;;;5096697;28;20531;-83
2022/07/01 01:31:11;;;;;;;1.00;1.00;;;13.90;99.90;;;;;;5079229;28;20444;-83
2022/07/01 01:33:38;;;;;;;1.10;1.00;;;13.80;99.90;;;;;;5093244;28;20466;-83
2022/07/01 01:36:06;;;;;;;1.10;1.00;;;13.80;99.90;;;;;;5100185;28;20499;-83
2022/07/01 01:38:35;;;;;;;1.23;1.13;;;13.70;99.90;;;;;;5087821;28;20713;-83
2022/07/01 01:41:02;;;;;;;1.73;1.50;;;13.60;99.90;;;;;;5079745;28;20443;-83
2022/07/01 01:43:29;;;;;;;1.10;1.00;;;13.50;99.90;;;;;;5091254;28;20471;-83
2022/07/01 01:45:55;;;;;;;1.87;1.77;;;13.50;99.90;;;;;;5099682;28;20454;-83
2022/07/01 01:48:22;;;;;;;1.30;1.20;;;13.50;99.90;;;;;;5089867;28;20462;-83
2022/07/01 01:50:49;;;;;;;1.63;1.33;;;13.40;99.90;;;;;;5078961;28;20787;-83
2022/07/01 01:53:15;;;;;;;1.30;1.20;;;13.40;99.90;;;;;;5087493;28;20454;-83
2022/07/01 01:55:43;;;;;;;3.03;1.40;;;13.40;99.90;;;;;;5099357;28;20446;-83
2022/07/01 01:58:10;;;;;;;3.10;1.37;;;13.30;99.90;;;;;;5097783;28;20451;-83
2022/07/01 02:00:37;;;;;;;1.60;1.50;;;13.30;99.90;;;;;;5093659;28;20479;-83
2022/07/01 02:03:04;;;;;;;1.43;1.33;;;13.30;99.90;;;;;;5078726;28;20652;-83
2022/07/01 02:05:31;;;;;;;1.70;1.60;;;13.20;99.90;;;;;;5081766;28;20462;-82
2022/07/01 02:07:58;;;;;;;1.90;1.63;;;13.20;99.90;;;;;;5098824;28;20445;-83
2022/07/01 02:10:24;;;;;;;1.60;1.50;;;13.10;99.90;;;;;;5096451;28;20441;-82
2022/07/01 02:12:53;;;;;;;1.80;1.60;;;13.10;99.90;;;;;;5079074;28;20455;-83
2022/07/01 02:15:20;;;;;;;1.40;1.30;;;13.10;99.90;;;;;;5085134;28;20813;-83
2022/07/01 02:17:47;;;;;;;4.10;2.37;;;13.10;99.90;;;;;;5099225;28;20454;-83
2022/07/01 02:20:14;;;;;;;3.13;2.23;;;13.10;99.90;;;;;;5093592;28;20494;-83
2022/07/01 02:22:41;;;;;;;1.73;1.63;;;13.10;99.90;;;;;;5078984;28;20458;-83
2022/07/01 02:25:08;;;;;;;1.90;1.80;;;13.00;99.90;;;;;;5082495;28;20480;-84
2022/07/01 02:27:36;;;;;;;1.93;1.83;;;13.00;99.90;;;;;;5099638;28;20450;-83
2022/07/01 02:30:06;;;;;;;1.57;1.47;;;13.00;99.90;;;;;;5081642;28;20451;-82
2022/07/01 02:32:32;;;;;;;1.43;1.40;;;13.00;99.90;;;;;;5078468;28;21127;-83
2022/07/01 02:34:59;;;;;;;1.70;1.60;;;12.90;99.90;;;;;;5093589;28;20474;-84
2022/07/01 02:37:26;;;;;;;1.50;1.40;;;13.00;99.90;;;;;;5098956;28;20451;-83
2022/07/01 02:39:53;;;;;;;1.60;1.50;;;13.00;99.90;;;;;;5084743;28;20486;-82
2022/07/01 02:42:26;;;;;;;2.10;1.87;;;13.00;99.90;;;;;;5078171;28;20451;-83
2022/07/01 02:44:53;;;;;;;1.83;1.73;;;12.90;99.90;;;;;;5091706;28;21030;-82
2022/07/01 02:47:21;;;;;;;2.00;1.90;;;12.90;99.90;;;;;;5088430;28;20555;-83
2022/07/01 02:49:48;;;;;;;2.53;2.43;;;12.90;99.90;;;;;;5078086;28;20448;-83
2022/07/01 02:52:16;;;;;;;1.83;1.73;;;12.90;99.90;;;;;;5086782;28;20472;-82
2022/07/01 02:54:43;;;;;;;2.70;2.50;;;12.90;99.90;;;;;;5098035;28;20473;-82
2022/07/01 02:57:10;;;;;;;2.30;1.97;;;12.80;99.90;;;;;;5088825;28;20451;-83
2022/07/01 02:59:36;;;;;;;3.00;2.80;;;12.80;99.90;;;;;;5078054;28;20497;-83
2022/07/01 03:02:04;;;;;;;3.13;2.37;;;12.80;99.90;;;;;;5084744;28;20451;-82
2022/07/01 03:04:32;;;;;;;4.33;2.37;;;12.80;99.90;;;;;;5098464;28;20466;-83
2022/07/01 03:06:59;;;;;;;3.57;2.83;;;12.90;99.90;;;;;;5094056;28;20835;-84
2022/07/01 03:09:26;;;;;;;2.90;2.70;;;12.90;99.90;;;;;;5093545;28;20450;-84
2022/07/01 03:11:53;;;;;;;3.10;2.83;;;12.90;99.90;;;;;;5088227;28;20460;-83
2022/07/01 03:14:19;;;;;;;5.63;3.53;;;12.90;99.90;;;;;;5093380;28;20478;-84
2022/07/01 03:16:47;;;;;;;4.13;3.73;;;12.90;99.90;;;;;;5093331;28;20453;-83
2022/07/01 03:19:14;;;;;;;4.40;4.00;;;12.90;99.90;;;;;;5093472;28;20474;-84
2022/07/01 03:21:42;;;;;;;4.60;3.20;;;13.00;99.90;;;;;;5090786;28;20450;-83
2022/07/01 03:24:09;;;;;;;3.50;3.20;;;13.00;99.90;;;;;;5073093;28;20475;-83
2022/07/01 03:26:36;;;;;;;4.90;3.13;;;13.10;99.90;;;;;;5073466;28;20458;-83
2022/07/01 03:29:02;;;;;;;3.40;3.10;;;13.00;99.90;;;;;;5093515;28;20816;-83
2022/07/01 03:31:30;;;;;;;2.77;2.57;;;13.00;99.90;;;;;;5093881;28;20447;-83
2022/07/01 03:33:57;;;;;;;3.00;2.77;;;13.10;99.90;;;;;;5073108;28;20520;-83
2022/07/01 03:36:23;;;;;;;3.27;2.63;;;13.20;99.90;;;;;;5073501;28;20443;-84
2022/07/01 03:38:52;;;;;;;2.60;2.33;;;13.30;99.90;;;;;;5091761;28;20458;-83
2022/07/01 03:41:19;;;;;;;3.03;2.73;;;13.30;99.90;;;;;;5091521;28;20453;-84
2022/07/01 03:43:45;;;;;;;4.53;2.87;;;13.20;99.90;;;;;;5073177;28;20466;-83
2022/07/01 03:46:12;;;;;;;3.10;2.80;;;13.20;99.90;;;;;;5073634;28;20868;-84
2022/07/01 03:48:39;;;;;;;2.30;2.10;;;13.10;99.90;;;;;;5073557;28;20451;-83
2022/07/01 03:51:06;;;;;;;2.70;1.70;;;13.10;99.90;;;;;;5089041;28;20455;-83
2022/07/01 03:56:18;;;;;;;1.73;1.63;;;13.00;99.90;;;;;;5093910;28;20978;-85
2022/07/01 03:58:45;;;;;;;1.40;1.30;;;13.10;99.90;;;;;;5096069;28;20458;-87
2022/07/01 04:01:12;;;;;;;1.53;1.47;;;12.90;99.90;;;;;;5082798;28;20849;-87
2022/07/01 04:03:38;;;;;;;3.90;1.53;;;12.80;99.90;;;;;;5078927;28;20474;-86
2022/07/01 04:06:05;;;;;;;1.50;1.40;;;12.80;99.90;;;;;;5094818;28;20998;-86
2022/07/01 04:08:32;;;;;;;1.83;1.70;;;12.80;99.90;;;;;;5097515;28;20450;-86
2022/07/01 04:10:59;;;;;;;1.87;1.77;;;12.80;99.90;;;;;;5099265;28;20822;-86
2022/07/01 04:13:27;;;;;;;1.03;1.00;;;12.80;99.90;;;;;;5091176;28;20478;-86
2022/07/01 04:15:55;;;;;;;1.67;1.57;;;12.90;99.90;;;;;;5077407;28;20447;-86
2022/07/01 04:18:21;;;;;;;1.50;1.40;;;12.90;99.90;;;;;;5076835;28;20447;-86
2022/07/01 04:22:32;;;;;;;1.40;1.30;;;13.00;99.90;;;;;;5096388;28;20485;-84
2022/07/01 04:23:34;;;;;;;1.50;1.40;;;12.90;99.90;;;;;;5083350;28;21039;-85
2022/07/01 04:26:02;;;;;;;1.87;1.70;;;12.90;99.90;;;;;;5077248;28;20522;-85
2022/07/01 04:28:30;;;;;;;1.53;1.43;;;12.80;99.90;;;;;;5096569;28;20219;-85
2022/07/01 04:30:56;;;;;;;2.00;1.70;;;12.90;99.90;;;;;;5097712;28;20439;-84
2022/07/01 04:33:23;;;;;;;1.47;1.37;;;12.90;99.90;;;;;;5098004;28;20552;-84
2022/07/01 04:35:50;;;;;;;1.60;1.50;;;12.80;99.90;;;;;;5099529;28;20447;-84
2022/07/01 04:38:17;;;;;;;1.50;1.40;;;12.80;99.90;;;;;;5090671;28;20460;-85
2022/07/01 04:41:58;;;;;;;1.40;1.30;;;12.80;99.90;;;;;;5096019;28;20575;-85
2022/07/01 04:43:31;;;;;;;2.83;1.80;;;12.70;99.90;;;;;;5101765;28;20465;-85
2022/07/01 04:45:58;;;;;;;2.30;1.63;;;12.80;99.90;;;;;;5086501;28;20459;-84
2022/07/01 04:48:24;;;;;;;1.70;1.60;;;12.70;99.90;;;;;;5082034;28;20449;-84
2022/07/01 04:50:51;;;;;;;1.73;1.63;;;12.80;99.90;;;;;;5092768;28;20457;-85
2022/07/01 04:53:18;;;;;;;2.10;1.90;;;12.80;99.90;;;;;;5080470;28;20899;-85
2022/07/01 04:55:44;;;;;;;2.30;2.10;;;12.90;99.90;;;;;;5091173;28;20454;-85
2022/07/01 04:58:13;;;;;;;2.37;2.17;;;12.90;99.90;;;;;;5101468;28;20457;-84
2022/07/01 05:00:41;;;;;;;1.77;1.67;;;12.90;99.90;;;;;;5082284;28;20479;-84
2022/07/01 05:03:07;;;;;;;2.20;1.87;;;12.90;99.90;;;;;;5081079;28;20458;-84
2022/07/01 05:05:34;;;;;;;1.93;1.83;;;12.90;99.90;;;;;;5101743;28;20455;-84
2022/07/01 05:08:01;;;;;;;1.57;1.47;;;13.00;99.90;;;;;;5100189;28;20450;-82
2022/07/01 05:10:29;;;;;;;2.07;1.80;;;13.00;99.90;;;;;;5098231;28;20443;-83
2022/07/01 05:12:55;;;;;;;2.03;1.77;;;13.10;99.90;;;;;;5082625;28;20477;-82
2022/07/01 05:15:22;;;;;;;1.73;1.63;;;13.00;99.90;;;;;;5077366;28;20475;-82
2022/07/01 05:23:19;;;;;;;2.07;1.90;;;13.00;99.90;;;;;;5082804;28;20455;-82
2022/07/01 05:25:45;;;;;;;1.60;1.50;;;13.10;99.90;;;;;;5084186;28;20458;-81
2022/07/01 05:28:12;;;;;;;1.87;1.77;;;13.10;99.90;;;;;;5087752;28;20446;-82
2022/07/01 05:30:39;;;;;;;1.77;1.50;;;13.10;99.90;;;;;;5097747;28;20458;-81
2022/07/01 05:33:07;;;;;;;1.70;1.60;;;13.10;99.90;;;;;;5091478;28;20447;-81
2022/07/01 05:35:34;;;;;;;2.37;2.17;;;13.20;99.90;;;;;;5087075;28;20446;-81
2022/07/01 05:38:01;;;;;;;2.13;1.80;;;13.30;99.90;;;;;;5092429;28;20455;-81
2022/07/01 05:40:27;;;;;;;1.70;1.57;;;13.30;99.90;;;;;;5074496;28;20479;-81
2022/07/01 05:42:54;;;;;;;2.33;1.77;;;13.30;99.90;;;;;;5075289;28;20459;-80
2022/07/01 05:45:21;;;;;;;1.93;1.53;;;13.20;99.90;;;;;;5095548;28;20474;-81
2022/07/01 05:47:48;;;;;;;1.80;1.70;;;13.30;99.90;;;;;;5094928;28;20529;-81
2022/07/01 05:50:16;;;;;;;3.03;2.83;;;13.50;99.90;;;;;;5094666;28;20452;-81
2022/07/01 05:52:43;;;;;;;3.23;1.77;;;13.60;99.90;;;;;;5095239;28;20435;-81
2022/07/01 05:55:11;;;;;;;1.60;1.50;;;13.60;99.90;;;;;;5076018;28;20475;-81
2022/07/01 05:57:38;;;;;;;2.00;1.70;;;13.70;99.90;;;;;;5083601;28;20458;-82
2022/07/01 06:00:06;;;;;;;2.03;1.53;;;13.80;99.90;;;;;;5075590;28;20483;-81
2022/07/01 06:02:32;;;;;;;2.00;1.90;;;13.80;99.90;;;;;;5074395;28;20454;-81
2022/07/01 06:04:59;;;;;;;1.97;1.87;;;13.70;99.90;;;;;;5075021;28;20470;-81
2022/07/01 06:07:27;;;;;;;2.60;2.17;;;13.70;99.90;;;;;;5074751;28;20498;-80
2022/07/01 06:09:55;;;;;;;2.00;1.73;;;13.70;99.90;;;;;;5074166;28;20447;-81
2022/07/01 06:12:22;;;;;;;2.37;2.17;;;13.70;99.90;;;;;;5074009;28;20454;-81
2022/07/01 06:14:48;;;;;;;2.30;2.00;;;13.80;99.90;;;;;;5074339;28;20486;-81
2022/07/01 06:17:16;;;;;;;3.77;2.47;;;13.80;99.90;;;;;;5074639;28;20451;-81
2022/07/01 06:19:43;;;;;;;3.90;2.27;;;13.90;99.90;;;;;;5074222;28;20451;-81
2022/07/01 06:22:10;;;;;;;2.80;2.53;;;14.10;99.90;;;;;;5074165;28;20452;-81
2022/07/01 06:24:38;;;;;;;2.43;2.13;;;14.20;99.90;;;;;;5073853;28;20470;-81
2022/07/01 06:27:05;;;;;;;2.53;2.33;;;14.10;99.90;;;;;;5074111;28;20496;-81
2022/07/01 06:29:32;;;;;;;2.90;2.60;;;14.10;99.90;;;;;;5074096;28;20459;-81
2022/07/01 06:31:59;;;;;;;2.50;2.30;;;14.10;99.90;;;;;;5073512;28;20439;-81
2022/07/01 06:34:25;;;;;;;3.03;2.70;;;14.20;99.90;;;;;;5074023;28;20472;-81
2022/07/01 06:36:52;;;;;;;3.17;2.97;;;14.20;99.90;;;;;;5073878;28;20450;-80
2022/07/01 06:39:19;;;;;;;2.43;2.10;;;14.30;99.90;;;;;;5073925;28;20443;-81
2022/07/01 06:41:47;;;;;;;2.90;2.70;;;14.10;99.90;;;;;;5073297;28;20487;-81
2022/07/01 06:44:14;;;;;;;2.20;2.00;;;14.10;99.90;;;;;;5073800;28;20546;-81
2022/07/01 06:46:40;;;;;;;3.23;2.93;;;14.10;99.90;;;;;;5073656;28;20952;-81
2022/07/01 06:49:07;;;;;;;4.23;3.93;;;13.90;99.90;;;;;;5073838;28;20458;-81
2022/07/01 06:51:34;;;;;;;3.00;2.40;;;13.80;99.90;;;;;;5073606;28;20439;-81
2022/07/01 06:54:00;;;;;;;2.33;2.23;;;13.60;99.90;;;;;;5073860;28;20471;-81
2022/07/01 06:56:27;;;;;;;2.50;2.00;;;13.50;99.90;;;;;;5073883;28;20447;-81
2022/07/01 06:58:56;;;;;;;2.53;2.30;;;13.50;99.90;;;;;;5073460;28;20455;-81
2022/07/01 07:01:22;;;;;;;2.40;2.20;;;13.40;99.90;;;;;;5073456;28;20486;-81
2022/07/01 07:03:49;;;;;;;5.20;2.63;;;13.40;99.90;;;;;;5073578;28;20474;-81
2022/07/01 07:06:16;;;;;;;3.63;2.57;;;13.40;99.90;;;;;;5073670;28;20794;-80
2022/07/01 07:08:43;;;;;;;2.40;2.20;;;13.40;99.90;;;;;;5073472;28;20447;-81
2022/07/01 07:11:10;;;;;;;4.47;2.87;;;13.40;99.90;;;;;;5073281;28;20451;-81
2022/07/01 07:13:37;;;;;;;2.83;2.63;;;13.50;99.90;;;;;;5073559;28;20475;-81
2022/07/01 07:16:05;;;;;;;2.23;2.07;;;13.40;99.90;;;;;;5073520;28;20451;-81
2022/07/01 07:18:32;;;;;;;3.00;2.17;;;13.50;99.90;;;;;;5073687;28;20455;-81
2022/07/01 07:20:59;;;;;;;2.37;2.20;;;13.50;99.90;;;;;;5073402;28;20486;-81
2022/07/01 07:23:25;;;;;;;2.23;2.03;;;13.50;99.90;;;;;;5073040;28;20494;-81
2022/07/01 07:25:52;;;;;;;3.07;2.70;;;13.50;99.90;;;;;;5073430;28;20450;-82
2022/07/01 07:28:19;;;;;;;5.00;3.07;;;13.40;99.90;;;;;;5073879;28;20450;-82
2022/07/01 07:30:45;;;;;;;2.90;2.70;;;13.60;99.90;;;;;;5082573;28;20970;-82
2022/07/01 07:33:14;;;;;;;3.30;2.70;;;13.60;99.90;;;;;;5091310;28;20469;-84
2022/07/01 07:35:41;;;;;;;3.43;3.13;;;13.60;99.90;;;;;;5088364;28;20451;-80
2022/07/01 07:38:08;;;;;;;5.40;3.50;;;13.40;99.90;;;;;;5093759;28;20457;-80
2022/07/01 07:40:35;;;;;;;3.60;3.40;;;13.50;99.90;;;;;;5082376;28;20481;-83
2022/07/01 07:43:03;;;;;;;5.80;3.33;;;13.60;99.90;;;;;;5093900;28;20446;-82
2022/07/01 07:45:30;;;;;;;9.70;4.80;;;13.60;99.90;;;;;;5093327;28;20967;-80
2022/07/01 07:47:57;;;;;;;4.40;3.53;;;13.70;99.90;;;;;;5093401;28;20454;-80
2022/07/01 07:50:25;;;;;;;3.73;2.97;;;13.60;99.90;;;;;;5093487;28;20821;-83
2022/07/01 07:52:52;;;;;;;3.27;2.97;;;13.60;99.90;;;;;;5094499;28;20447;-81
2022/07/01 07:55:19;;;;;;;2.10;2.00;;;13.70;99.90;;;;;;5097684;28;20466;-80
2022/07/01 07:57:45;;;;;;;5.10;3.20;;;13.70;99.90;;;;;;5097985;28;20817;-80
2022/07/01 08:00:13;;;;;;;3.23;2.50;;;13.80;99.90;;;;;;5097019;28;20446;-83
2022/07/01 08:02:41;;;;;;;2.23;2.03;;;13.90;99.90;;;;;;5097889;28;20817;-82
2022/07/01 08:05:09;;;;;;;1.93;1.73;;;13.90;99.90;;;;;;5097918;28;20470;-82
2022/07/01 08:07:38;;;;;;;2.63;1.90;;;13.80;99.90;;;;;;5097274;28;20453;-82
2022/07/01 08:10:06;;;;;;;1.93;1.73;;;13.90;99.90;;;;;;5097541;28;20482;-82
2022/07/01 08:12:33;;;;;;;4.60;2.40;;;13.90;99.90;;;;;;5097205;28;20459;-81
2022/07/01 08:15:00;;;;;;;2.67;2.20;;;13.90;99.90;;;;;;5097050;28;20470;-82
2022/07/01 08:17:27;;;;;;;3.07;2.00;;;13.90;99.90;;;;;;5096779;28;20455;-82
2022/07/01 08:19:54;;;;;;;3.17;2.37;;;14.00;99.90;;;;;;5097111;28;20446;-82
2022/07/01 08:22:21;;;;;;;2.40;2.20;;;14.10;99.90;;;;;;5096188;28;20991;-81
2022/07/01 08:24:49;;;;;;;5.17;3.10;;;14.20;99.90;;;;;;5099782;28;20481;-82
2022/07/01 08:27:16;;;;;;;18.13;7.17;;;14.20;99.90;;;;;;5100362;28;20455;-82
2022/07/01 08:29:43;;;;;;;4.40;2.70;;;14.20;99.90;;;;;;5100156;28;20812;-81
2022/07/01 08:32:10;;;;;;;3.97;2.87;;;14.20;99.90;;;;;;5098717;28;20446;-81
2022/07/01 08:34:37;;;;;;;3.53;2.93;;;14.20;99.90;;;;;;5099212;28;20473;-81
2022/07/01 08:37:04;;;;;;;3.50;3.10;;;14.20;99.90;;;;;;5099520;28;20442;-81
2022/07/01 08:39:31;;;;;;;2.90;2.50;;;14.30;99.90;;;;;;5099594;28;20455;-81
2022/07/01 08:42:00;;;;;;;4.53;4.10;;;14.30;99.90;;;;;;5099427;28;20847;-81
2022/07/01 08:44:27;;;;;;;9.10;8.30;;;14.20;99.90;;;;;;5099286;28;20466;-81
2022/07/01 08:46:54;;;;;;;9.53;8.57;;;14.20;99.90;;;;;;5098900;28;20873;-82
2022/07/01 08:49:22;;;;;;;8.33;7.50;;;14.10;99.90;;;;;;5099016;28;20482;-81
2022/07/01 08:51:49;;;;;;;6.17;5.57;;;14.10;99.90;;;;;;5098719;28;20988;-81
2022/07/01 08:54:16;;;;;;;5.20;4.80;;;14.00;99.90;;;;;;5099005;28;20470;-81
2022/07/01 08:56:44;;;;;;;5.40;4.60;;;14.00;99.90;;;;;;5097978;28;20439;-82
2022/07/01 08:59:21;;;;;;;3.70;3.10;;;14.00;99.90;;;;;;5098159;28;20537;-82
2022/07/01 09:01:56;;;;;;;2.90;2.70;;;14.00;99.90;;;;;;5097380;28;20474;-82
2022/07/01 09:04:23;;;;;;;3.57;3.27;;;13.80;99.90;;;;;;5097415;28;20502;-82
2022/07/01 09:06:50;;;;;;;2.77;2.57;;;13.80;99.90;;;;;;5097708;28;20830;-82
2022/07/01 09:09:20;;;;;;;2.43;2.20;;;13.80;99.90;;;;;;5097750;28;20450;-82
2022/07/01 09:11:53;;;;;;;2.23;2.03;;;13.70;99.90;;;;;;5098040;28;20453;-83
2022/07/01 09:14:22;;;;;;;4.17;2.33;;;13.80;99.90;;;;;;5098401;28;20473;-83
2022/07/01 09:16:50;;;;;;;2.53;2.33;;;13.80;99.90;;;;;;5098262;28;20462;-82
2022/07/01 09:19:19;;;;;;;2.40;2.10;;;13.90;99.90;;;;;;5098376;28;20464;-82
2022/07/01 09:21:50;;;;;;;2.43;2.23;;;14.00;99.90;;;;;;5099183;28;20499;-82
2022/07/01 09:24:28;;;;;;;3.07;2.40;;;14.10;99.90;;;;;;5099706;28;20500;-82
2022/07/01 09:27:00;;;;;;;3.47;2.40;;;14.00;99.90;;;;;;5098990;28;20454;-82
2022/07/01 09:29:31;;;;;;;10.57;2.63;;;13.90;99.90;;;;;;5100017;28;20446;-81
2022/07/01 09:31:58;;;;;;;2.40;1.97;;;13.70;99.90;;;;;;5100087;28;20458;-81
2022/07/01 09:34:25;;;;;;;2.73;2.50;;;13.70;99.90;;;;;;5099780;28;20972;-82
2022/07/01 09:36:56;;;;;;;2.37;2.17;;;13.70;99.90;;;;;;5099383;28;20933;-82
2022/07/01 09:39:23;;;;;;;3.40;3.20;;;13.80;99.90;;;;;;5099085;28;20450;-82
2022/07/01 09:41:50;;;;;;;3.10;2.80;;;13.90;99.90;;;;;;5099853;28;20540;-82
2022/07/01 09:44:17;;;;;;;3.80;2.90;;;14.00;99.90;;;;;;5099817;28;20820;-82
2022/07/01 09:46:58;;;;;;;6.00;2.83;;;14.10;99.90;;;;;;5100312;28;20466;-81
2022/07/01 09:49:25;;;;;;;4.40;2.93;;;14.30;99.90;;;;;;5099358;28;20516;-81
2022/07/01 09:51:52;;;;;;;6.03;3.13;;;14.30;99.90;;;;;;5099684;28;20450;-81
2022/07/01 09:54:20;;;;;;;2.43;2.23;;;14.30;99.90;;;;;;5099544;28;20549;-80
2022/07/01 09:56:47;;;;;;;2.50;2.30;;;14.20;99.90;;;;;;5099516;28;20479;-80
2022/07/01 09:59:14;;;;;;;3.57;2.30;;;14.20;99.90;;;;;;5099435;28;20459;-80
2022/07/01 10:01:41;;;;;;;2.60;2.40;;;14.30;99.90;;;;;;5100099;28;20892;-80
2022/07/01 10:04:11;;;;;;;3.30;2.20;;;14.40;99.90;;;;;;5099463;28;20494;-80
2022/07/01 10:07:15;;;;;;;2.50;2.30;;;14.60;99.90;;;;;;5099797;28;20468;-80
2022/07/01 10:09:57;;;;;;;4.77;2.40;;;14.80;99.90;;;;;;5098751;28;20906;-80
2022/07/01 10:12:37;;;;;;;3.13;2.27;;;15.10;99.90;;;;;;5099542;28;20466;-80
2022/07/01 10:15:06;;;;;;;1.90;1.70;;;15.30;99.90;;;;;;5099110;28;20474;-80
2022/07/01 10:17:37;;;;;;;2.00;1.80;;;15.50;99.90;;;;;;5098878;28;20449;-80
2022/07/01 10:20:11;;;;;;;4.10;3.10;;;15.50;99.90;;;;;;5099166;28;20477;-80
2022/07/01 10:22:39;;;;;;;1.73;1.60;;;15.70;99.90;;;;;;5099089;28;20488;-80
2022/07/01 10:25:30;;;;;;;2.10;1.90;;;15.70;99.90;;;;;;5085048;28;20468;-81
2022/07/01 10:28:23;;;;;;;2.47;2.27;;;15.70;99.90;;;;;;5072460;28;20453;-84
2022/07/01 10:30:52;;;;;;;1.73;1.63;;;15.90;99.90;;;;;;5097765;28;20447;-82
2022/07/01 10:33:45;;;;;;;1.30;1.30;;;16.00;99.90;;;;;;5078189;28;20473;-82
2022/07/01 10:36:19;;;;;;;2.50;2.30;;;16.20;99.90;;;;;;5065890;28;20453;-82
2022/07/01 10:39:30;;;;;;;2.30;1.93;;;16.30;99.90;;;;;;5083997;28;20459;-85
2022/07/01 10:42:02;;;;;;;1.80;1.70;;;16.10;99.90;;;;;;5078030;28;20483;-85
2022/07/01 10:44:29;;;;;;;1.97;1.80;;;16.20;99.90;;;;;;5082794;28;20479;-86
2022/07/01 10:47:04;;;;;;;2.23;2.03;;;16.30;99.90;;;;;;5083373;28;20468;-85
2022/07/01 10:50:05;;;;;;;3.37;3.17;;;16.40;99.90;;;;;;5084364;28;20504;-84
2022/07/01 10:52:34;;;;;;;2.13;2.00;;;16.60;99.90;;;;;;5082926;28;20441;-84
2022/07/01 10:55:02;;;;;;;6.80;2.53;;;16.70;99.90;;;;;;5080903;28;20467;-85
2022/07/01 10:57:35;;;;;;;1.70;1.60;;;17.00;99.90;;;;;;5082484;28;20441;-84
2022/07/01 11:00:35;;;;;;;1.40;1.30;;;17.20;99.90;;;;;;5092251;28;20472;-84
2022/07/01 11:03:22;;;;;;;2.70;1.90;;;17.50;99.90;;;;;;5093006;28;20491;-82
2022/07/01 11:05:52;;;;;;;1.73;1.40;;;17.90;99.90;;;;;;5107229;28;20436;-86
2022/07/01 11:08:20;;;;;;;1.80;1.37;;;18.10;99.90;;;;;;5105187;28;20455;-86
2022/07/01 11:10:52;;;;;;;1.30;1.20;;;18.10;99.90;;;;;;5099412;28;20456;-85
2022/07/01 11:13:21;;;;;;;1.50;1.40;;;18.20;99.90;;;;;;5096165;28;20464;-86
2022/07/01 11:15:48;;;;;;;1.40;1.30;;;18.30;99.90;;;;;;5093361;28;20453;-85
2022/07/01 11:18:16;;;;;;;1.47;1.37;;;18.40;99.90;;;;;;5094736;28;20450;-86
2022/07/01 11:20:43;;;;;;;1.77;1.33;;;18.60;99.90;;;;;;5091742;28;20536;-85
2022/07/01 11:23:10;;;;;;;2.10;1.30;;;18.80;99.90;;;;;;5094430;28;20486;-83
2022/07/01 11:25:38;;;;;;;1.57;1.47;;;18.80;99.90;;;;;;5080640;28;20446;-85
2022/07/01 11:28:04;;;;;;;2.20;2.10;;;18.70;99.90;;;;;;5077517;28;20443;-85
2022/07/01 11:30:32;;;;;;;2.73;1.70;;;18.50;99.90;;;;;;5093506;28;20802;-86
2022/07/01 11:32:59;;;;;;;2.10;1.50;;;18.70;99.90;;;;;;5103554;28;20450;-86
2022/07/01 11:41:02;;;;;;;1.10;1.10;;;18.90;99.90;;;;;;5102255;28;20420;-85
2022/07/01 11:43:31;;;;;;;1.73;1.53;;;18.90;99.90;;;;;;5087000;28;20490;-84
2022/07/01 11:46:01;;;;;;;1.23;1.23;;;18.80;99.90;;;;;;5082556;28;20451;-86
2022/07/01 11:48:37;;;;;;;1.17;1.07;;;18.40;99.90;;;;;;5091047;28;20471;-84
2022/07/01 11:51:11;;;;;;;1.70;1.60;;;18.40;99.90;;;;;;5088267;28;20515;-85
2022/07/01 11:53:40;;;;;;;1.37;1.30;;;18.00;99.90;;;;;;5083188;28;20474;-85
2022/07/01 11:56:08;;;;;;;1.83;1.73;;;17.80;99.90;;;;;;5094492;28;20460;-85
2022/07/01 11:58:42;;;;;;;2.00;1.90;;;17.50;99.90;;;;;;5102851;28;20456;-83
2022/07/01 12:01:10;;;;;;;2.13;1.63;;;17.60;99.90;;;;;;5091016;28;20453;-84
2022/07/01 12:03:38;;;;;;;1.90;1.80;;;17.80;99.90;;;;;;5083432;28;20497;-84
2022/07/01 12:06:05;;;;;;;1.07;1.07;;;18.00;99.90;;;;;;5094263;28;20458;-86
2022/07/01 12:08:32;;;;;;;1.50;1.40;;;18.20;99.90;;;;;;5104900;28;20819;-86
2022/07/01 12:10:59;;;;;;;1.73;1.60;;;18.20;99.90;;;;;;5094220;28;20454;-86
2022/07/01 12:13:28;;;;;;;1.80;1.70;;;18.60;99.90;;;;;;5091145;28;20481;-86
2022/07/01 12:15:54;;;;;;;1.40;1.30;;;18.90;99.90;;;;;;5104374;28;20454;-86
2022/07/01 12:18:21;;;;;;;1.53;1.43;;;19.20;99.90;;;;;;5097495;28;20452;-84
2022/07/01 12:20:54;;;;;;;1.47;1.37;;;19.60;99.90;;;;;;5084206;28;20447;-85
2022/07/01 12:23:21;;;;;;;1.77;1.67;;;20.00;99.90;;;;;;5090500;28;20486;-86
2022/07/01 12:25:49;;;;;;;1.30;1.20;;;20.70;99.90;;;;;;5106153;28;20452;-83
2022/07/01 12:28:31;;;;;;;2.50;1.47;;;21.50;99.90;;;;;;5099602;28;21083;-83
2022/07/01 12:31:07;;;;;;;1.30;1.20;;;21.70;99.90;;;;;;5086966;28;20452;-83
2022/07/01 12:33:36;;;;;;;1.73;1.33;;;22.10;99.90;;;;;;5104237;28;20474;-83
2022/07/01 12:36:04;;;;;;;1.23;1.13;;;22.30;99.90;;;;;;5093519;28;20457;-85
2022/07/01 12:38:31;;;;;;;1.67;1.57;;;22.40;99.90;;;;;;5101168;28;20441;-85
2022/07/01 12:40:58;;;;;;;1.60;1.50;;;22.30;99.90;;;;;;5097741;28;20448;-84
2022/07/01 12:43:28;;;;;;;1.30;1.20;;;22.30;99.90;;;;;;5093602;28;20986;-84
2022/07/01 12:45:57;;;;;;;2.03;1.30;;;22.20;99.90;;;;;;5103756;28;20459;-84
2022/07/01 12:48:27;;;;;;;3.27;2.10;;;22.10;99.90;;;;;;5100332;28;20456;-85
2022/07/01 12:50:56;;;;;;;1.70;1.60;;;21.90;99.90;;;;;;5094570;28;20484;-84
2022/07/01 12:53:24;;;;;;;1.60;1.40;;;21.70;99.90;;;;;;5112165;28;20524;-85
2022/07/01 12:55:53;;;;;;;3.43;1.80;;;21.40;99.90;;;;;;5127059;28;20446;-85
2022/07/01 12:58:20;;;;;;;1.73;1.63;;;21.30;99.90;;;;;;5111493;28;20452;-85
2022/07/01 13:00:50;;;;;;;2.10;1.90;;;21.40;99.90;;;;;;5105515;28;20452;-87
2022/07/01 13:03:26;;;;;;;1.73;1.63;;;21.60;99.90;;;;;;5084606;28;20492;-87
2022/07/01 13:05:54;;;;;;;1.90;1.80;;;21.90;99.90;;;;;;5079305;28;20487;-86
2022/07/01 13:08:22;;;;;;;1.40;1.30;;;22.40;99.90;;;;;;5086330;28;20460;-86